• Join FlightAware (Why Join?)
  • Login
  • US Flag 
12:47PM EDT


 

Airport Tracker/Info


-or-


 

Live Flight TrackerFlight Track Log ✈ UPS1307 ✈ 27-Jun-2013 ✈ KATL - KPHL

Flight Track Log - Related Links

Times and Time Zones

All times are in EDT time to prevent confusion due to time zone crossing. See the UPS1307 flight status page for this flight to view local times or setup timezone preferences in your user account.

Time Position Orientation Groundspeed Altitude Reporting Facility
EDT Latitude Longitude Course Direction KTS MPH feet Rate Location/Type
11:15PM 33.6530 -84.4190 272° West 2 2  Level FlightAware
11:17PM 33.6530 -84.4180 90° East 2 2 60 Level FlightAware
11:18PM 33.6530 -84.4190 82° East 14 16 60 Level FlightAware
11:19PM 33.6816 -84.1808 82° East  Level FlightAware Approximate
11:19PM 33.6520 -84.4190 180° South 25 29  Level FlightAware
11:20PM 33.6510 -84.4180 140° Southeast 29 33 60 Level FlightAware
11:20PM 33.6510 -84.4150 90° East 34 39 60 Level FlightAware
11:21PM 33.6510 -84.4130 90° East 28 32 60 Level FlightAware
11:21PM 33.6510 -84.4110 90° East 30 35 60 Level FlightAware
11:23PM 33.6510 -84.4100 90° East 13 15 60 Level FlightAware
11:23PM 33.6500 -84.4100 180° South 25 29 60 Level FlightAware
11:24PM 33.6480 -84.4090 157° South 22 25 120 Level FlightAware
11:24PM 33.6480 -84.4080 90° East 26 30 120 Level FlightAware
11:25PM 33.6480 -84.4060 90° East 18 21 120 Level FlightAware
11:28PM 33.7086 -84.0655 73° East  Level FlightAware Approximate
11:29PM 33.7664 -83.9505 54° Northeast  Level FlightAware Approximate
11:30PM 33.8325 -83.8404 54° Northeast  Level FlightAware Approximate
11:30PM 33.6470 -84.4060 54° Northeast 17 20  Level FlightAware
11:31PM 33.6470 -84.4070 270° West 28 32 1,020 Level FlightAware
11:31PM 33.6470 -84.4210 270° West 146 168 1,000 2,100 Climbing FlightAware
11:32PM 33.6470 -84.4350 270° West 166 191 1,500 1,860 Climbing FlightAware
11:32PM 33.6480 -84.4610 273° West 180 207 2,400 1,920 Climbing FlightAware
11:32PM 33.6560 -84.4900 288° West 205 236 3,300 2,340 Climbing FlightAware
11:33PM 33.6680 -84.5190 296° West 212 244 4,600 2,400 Climbing FlightAware
11:33PM 33.6730 -84.5330 293° West 227 261 4,900 1,860 Climbing FlightAware
11:34PM 33.6870 -84.5670 296° West 247 284 5,900 2,340 Climbing FlightAware
11:34PM 33.6970 -84.5780 318° Northwest 249 287 6,500 3,060 Climbing FlightAware
11:34PM 33.7160 -84.5840 345° North 249 287 7,400 2,820 Climbing FlightAware
11:35PM 33.7630 -84.5830 North 261 300 9,200 2,520 Climbing FlightAware
11:35PM 33.7970 -84.5710 16° North 274 315 10,400 2,520 Climbing FlightAware
11:35PM 33.8080 -84.5550 50° Northeast 284 327 11,000 2,340 Climbing FlightAware
11:36PM 33.8140 -84.5290 74° East 305 351 11,500 1,380 Climbing FlightAware
11:36PM 33.8140 -84.4570 90° East 362 417 12,300 2,220 Climbing FlightAware
11:37PM 33.8200 -84.3410 86° East 368 423 15,100 2,940 Climbing FlightAware
11:38PM 33.8560 -84.2600 62° Northeast 374 430 17,200 2,700 Climbing FlightAware
11:39PM 33.8930 -84.1900 57° Northeast 379 436 18,900 2,280 Climbing FlightAware
11:39PM 33.9320 -84.1150 58° Northeast 396 456 20,300 1,560 Climbing FlightAware
11:40PM 33.9750 -84.0300 59° Northeast 427 491 21,100 1,140 Climbing FlightAware
11:41PM 34.0230 -83.9390 58° Northeast 450 518 22,000 1,320 Climbing FlightAware
11:41PM 34.0446 -83.8959 59° Northeast 458 527 22,500 1,560 Climbing FlightAware ADS-B
11:42PM 34.0948 -83.7988 58° Northeast 463 533 23,700 1,560 Climbing FlightAware ADS-B
11:43PM 34.1559 -83.6811 58° Northeast 474 545 25,100 1,440 Climbing FlightAware ADS-B
11:44PM 34.2150 -83.5670 58° Northeast 488 562 26,200 1,380 Climbing FlightAware
11:44PM 34.2382 -83.5212 58° Northeast 486 559 26,700 1,440 Climbing FlightAware ADS-B
11:45PM 34.2783 -83.4430 58° Northeast 491 565 27,500 1,560 Climbing FlightAware ADS-B
11:45PM 34.3184 -83.3644 58° Northeast 491 565 28,500 1,740 Climbing FlightAware ADS-B
11:46PM 34.3554 -83.2918 58° Northeast 487 560 29,400 1,740 Climbing FlightAware ADS-B
11:46PM 34.3918 -83.2201 58° Northeast 487 560 30,300 1,620 Climbing FlightAware ADS-B
11:47PM 34.4275 -83.1499 58° Northeast 487 560 31,100 1,680 Climbing FlightAware ADS-B
11:47PM 34.4652 -83.0751 59° Northeast 483 556 32,100 1,800 Climbing FlightAware ADS-B
11:48PM 34.4999 -83.0057 59° Northeast 481 554 33,000 1,680 Climbing FlightAware ADS-B
11:48PM 34.5456 -82.9140 59° Northeast 477 549 34,100 1,680 Climbing FlightAware ADS-B
11:49PM 34.5882 -82.8281 59° Northeast 472 543 35,200 1,560 Climbing FlightAware ADS-B
11:49PM 34.6220 -82.7601 59° Northeast 471 542 35,900 1,320 Climbing FlightAware ADS-B
11:50PM 34.6569 -82.6898 59° Northeast 471 542 36,600 840 Climbing FlightAware ADS-B
11:51PM 34.7058 -82.5912 59° Northeast 475 547 37,000 300 Climbing FlightAware ADS-B
11:51PM 34.7405 -82.5212 59° Northeast 483 556 37,000  Level FlightAware ADS-B
11:52PM 34.7753 -82.4507 59° Northeast 484 557 37,000  Level FlightAware ADS-B
11:52PM 34.8101 -82.3804 59° Northeast 488 562 37,000  Level FlightAware ADS-B
11:53PM 34.8552 -82.2889 59° Northeast 490 564 37,000  Level FlightAware ADS-B
11:54PM 34.9210 -82.1554 59° Northeast 490 564 37,000  Level FlightAware ADS-B
11:54PM 34.9562 -82.0840 59° Northeast 488 562 37,000  Level FlightAware ADS-B
11:55PM 34.9927 -82.0095 59° Northeast 486 559 37,000  Level FlightAware ADS-B
11:55PM 35.0155 -81.9636 59° Northeast 485 558 37,000  Level FlightAware ADS-B
11:56PM 35.0508 -81.9012 55° Northeast 482 555 37,000  Level FlightAware ADS-B
11:56PM 35.0953 -81.8295 53° Northeast 483 556 37,000  Level FlightAware ADS-B
11:57PM 35.1372 -81.7641 52° Northeast 484 557 37,000  Level FlightAware ADS-B
11:57PM 35.1788 -81.6994 52° Northeast 484 557 37,000  Level FlightAware ADS-B
11:58PM 35.2216 -81.6327 52° Northeast 485 558 37,000  Level FlightAware ADS-B
11:58PM 35.2653 -81.5645 52° Northeast 485 558 37,000  Level FlightAware ADS-B
11:59PM 35.3080 -81.4977 52° Northeast 487 560 37,000  Level FlightAware ADS-B
11:59PM 35.3513 -81.4297 52° Northeast 489 563 37,000  Level FlightAware ADS-B
12:00AM 35.3936 -81.3634 52° Northeast 489 563 37,000  Level FlightAware ADS-B
12:00AM 35.4355 -81.2973 52° Northeast 489 563 37,000  Level FlightAware ADS-B
12:01AM 35.4933 -81.2062 52° Northeast 491 565 37,000  Level FlightAware ADS-B
12:01AM 35.5399 -81.1327 52° Northeast 492 566 37,000  Level FlightAware ADS-B
12:02AM 35.6160 -81.0120 52° Northeast 495 570 37,000  Level FlightAware
12:03AM 35.6680 -80.9280 53° Northeast 495 570 37,000  Level FlightAware
12:04AM 35.7270 -80.8350 52° Northeast 496 571 37,000  Level FlightAware
12:04AM 35.7800 -80.7510 52° Northeast 494 568 37,000  Level FlightAware
12:05AM 35.8680 -80.6100 52° Northeast 493 567 37,000  Level FlightAware
12:07AM 35.9620 -80.4600 52° Northeast 495 570 37,000  Level FlightAware
12:07AM 36.0120 -80.3780 53° Northeast 495 570 37,000  Level FlightAware
12:08AM 36.0820 -80.2630 53° Northeast 496 571 37,000  Level FlightAware
12:09AM 36.1260 -80.1930 52° Northeast 496 571 37,000  Level FlightAware
12:09AM 36.1930 -80.0810 53° Northeast 496 571 37,000  Level FlightAware
12:10AM 36.2750 -79.9470 53° Northeast 492 566 37,000  Level FlightAware
12:11AM 36.3510 -79.8220 53° Northeast 492 566 37,000  Level FlightAware
12:12AM 36.4060 -79.7300 53° Northeast 492 566 37,000  Level FlightAware
12:13AM 36.4680 -79.6270 53° Northeast 493 567 37,000  Level FlightAware
12:13AM 36.5260 -79.5370 51° Northeast 489 563 37,000  Level FlightAware
12:14AM 36.5970 -79.4440 46° Northeast 490 564 37,000  Level FlightAware
12:18AM 36.9810 -78.9700 45° Northeast 502 578 37,000 -240 Level FlightAware
12:19AM 37.1410 -78.7720 45° Northeast 507 583 36,000 -780 Descending FlightAware
12:22AM 37.4000 -78.4470 45° Northeast 504 580 34,000 -840 Descending FlightAware
12:23AM 37.4810 -78.3440 45° Northeast 503 579 33,200 -1,020 Descending FlightAware
12:24AM 37.5490 -78.2580 45° Northeast 504 580 32,600 -960 Descending FlightAware
12:24AM 37.6070 -78.1850 45° Northeast 506 582 32,000 -1,020 Descending FlightAware
12:25AM 37.6890 -78.0790 46° Northeast 506 582 31,200 -720 Descending FlightAware
12:26AM 37.7570 -77.9900 46° Northeast 511 588 31,000 -180 Descending FlightAware
12:26AM 37.8270 -77.8990 46° Northeast 514 592 31,000  Level FlightAware
12:27AM 37.8566 -77.8613 45° Northeast 513 590 31,000  Level FlightAware ADS-B
12:27AM 37.9124 -77.7888 46° Northeast 512 589 31,000  Level FlightAware ADS-B
12:28AM 37.9629 -77.7232 46° Northeast 513 590 31,000  Level FlightAware ADS-B
12:28AM 38.0129 -77.6584 46° Northeast 513 590 31,000  Level FlightAware ADS-B
12:29AM 38.0635 -77.5925 46° Northeast 514 592 31,000  Level FlightAware ADS-B
12:29AM 38.1134 -77.5274 46° Northeast 514 592 31,000  Level FlightAware ADS-B
12:30AM 38.1639 -77.4615 46° Northeast 514 592 31,000  Level FlightAware ADS-B
12:30AM 38.2191 -77.3893 46° Northeast 515 593 31,000  Level FlightAware ADS-B
12:31AM 38.2740 -77.3174 46° Northeast 516 594 31,000  Level FlightAware ADS-B
12:31AM 38.3242 -77.2515 46° Northeast 516 594 31,000  Level FlightAware ADS-B
12:32AM 38.3745 -77.1855 46° Northeast 517 595 31,000 -120 Level FlightAware ADS-B
12:32AM 38.4344 -77.1066 46° Northeast 516 594 30,900 -900 Descending FlightAware ADS-B
12:33AM 38.4658 -77.0609 49° Northeast 515 593 30,200 -2,760 Descending FlightAware ADS-B
12:33AM 38.4991 -77.0004 55° Northeast 535 616 28,900 -2,940 Descending FlightAware ADS-B
12:33AM 38.5105 -76.9752 60° Northeast 539 620 28,600 -1,680 Descending FlightAware ADS-B
12:34AM 38.5493 -76.8724 64° Northeast 543 625 27,700 -1,560 Descending FlightAware ADS-B
12:34AM 38.5819 -76.7839 65° Northeast 546 628 26,900 -1,380 Descending FlightAware ADS-B
12:35AM 38.6146 -76.6948 65° Northeast 538 619 26,300 -1,200 Descending FlightAware ADS-B
12:35AM 38.6458 -76.6094 65° Northeast 525 604 25,700 -1,620 Descending FlightAware ADS-B
12:36AM 38.6768 -76.5243 65° Northeast 518 596 24,700 -2,640 Descending FlightAware ADS-B
12:36AM 38.7079 -76.4385 65° Northeast 511 588 23,000 -3,600 Descending FlightAware ADS-B
12:37AM 38.7369 -76.3579 65° Northeast 483 556 21,100 -4,440 Descending FlightAware ADS-B
12:37AM 38.7650 -76.2795 65° Northeast 462 532 18,500 -4,740 Descending FlightAware ADS-B
12:38AM 38.7922 -76.2041 65° Northeast 458 527 16,300 -3,060 Descending FlightAware ADS-B
12:38AM 38.8191 -76.1289 65° Northeast 450 518 15,400 -1,080 Descending FlightAware ADS-B
12:39AM 38.8417 -76.0650 66° East 446 513 15,300 -180 Descending FlightAware ADS-B
12:39AM 38.8513 -76.0366 67° East 448 516 15,300  Level FlightAware ADS-B
12:39AM 38.8594 -76.0167 62° Northeast 450 518 15,300  Level FlightAware ADS-B
12:39AM 38.8737 -75.9890 56° Northeast 449 517 15,300  Level FlightAware ADS-B
12:40AM 38.8938 -75.9597 49° Northeast 449 517 15,300  Level FlightAware ADS-B
12:40AM 38.9094 -75.9419 42° Northeast 447 514 15,300  Level FlightAware ADS-B
12:40AM 38.9322 -75.9214 35° Northeast 445 512 15,300  Level FlightAware ADS-B
12:41AM 38.9869 -75.8798 31° Northeast 443 510 15,300 -1,020 Level FlightAware ADS-B
12:41AM 39.0397 -75.8403 30° Northeast 424 488 14,300 -2,700 Descending FlightAware ADS-B
12:42AM 39.0944 -75.7994 30° Northeast 423 487 12,500 -3,060 Descending FlightAware ADS-B
12:42AM 39.1473 -75.7596 30° Northeast 407 468 11,100 -2,040 Descending FlightAware ADS-B
12:43AM 39.1950 -75.7231 31° Northeast 373 429 10,400 -840 Descending FlightAware ADS-B
12:43AM 39.2377 -75.6902 31° Northeast 332 382 10,300 -120 Descending FlightAware ADS-B
12:44AM 39.2685 -75.6665 31° Northeast 316 364 10,300  Level FlightAware ADS-B
12:44AM 39.3038 -75.6367 33° Northeast 316 364 10,300  Level FlightAware ADS-B
12:45AM 39.3413 -75.6041 34° Northeast 320 368 10,300  Level FlightAware ADS-B
12:45AM 39.3644 -75.5844 33° Northeast 322 371 10,300  Level FlightAware ADS-B
12:45AM 39.3725 -75.5764 37° Northeast 323 372 10,300  Level FlightAware ADS-B
12:45AM 39.3779 -75.5702 42° Northeast 323 372 10,300  Level FlightAware ADS-B
12:45AM 39.3839 -75.5617 48° Northeast 323 372 10,300  Level FlightAware ADS-B
12:45AM 39.3885 -75.5540 52° Northeast 323 372 10,300  Level FlightAware ADS-B
12:45AM 39.3932 -75.5442 58° Northeast 323 372 10,300  Level FlightAware ADS-B
12:45AM 39.3974 -75.5331 64° Northeast 323 372 10,300  Level FlightAware ADS-B
12:46AM 39.4140 -75.4793 68° East 319 367 10,300  Level FlightAware ADS-B
12:46AM 39.4304 -75.4253 69° East 317 365 10,300 -300 Level FlightAware ADS-B
12:47AM 39.4462 -75.3712 69° East 310 357 10,000 -840 Descending FlightAware ADS-B
12:47AM 39.4540 -75.3441 70° East 308 354 9,700 -1,440 Descending FlightAware ADS-B
12:47AM 39.4572 -75.3332 69° East 308 354 9,500 -1,680 Descending FlightAware ADS-B
12:47AM 39.4602 -75.3247 65° Northeast 308 354 9,400 -1,200 Descending FlightAware ADS-B
12:48AM 39.4636 -75.3168 61° Northeast 308 354 9,300 -1,500 Descending FlightAware ADS-B
12:48AM 39.4660 -75.3117 59° Northeast 309 356 9,200 -2,040 Descending FlightAware ADS-B
12:48AM 39.4709 -75.3029 54° Northeast 309 356 9,000 -1,380 Descending FlightAware ADS-B
12:48AM 39.4739 -75.2987 47° Northeast 308 354 9,000 -1,140 Level FlightAware ADS-B
12:48AM 39.4823 -75.2895 40° Northeast 307 353 8,800 -1,500 Descending FlightAware ADS-B
12:48AM 39.4871 -75.2854 33° Northeast 307 353 8,700 -1,620 Descending FlightAware ADS-B
12:48AM 39.5061 -75.2706 31° Northeast 305 351 8,300 -1,620 Descending FlightAware ADS-B
12:48AM 39.5250 -75.2564 30° Northeast 304 350 7,900 -1,500 Descending FlightAware ADS-B
12:49AM 39.5407 -75.2448 30° Northeast 304 350 7,600 -1,500 Descending FlightAware ADS-B
12:49AM 39.5598 -75.2306 30° Northeast 302 348 7,200 -1,560 Descending FlightAware ADS-B
12:49AM 39.5785 -75.2166 30° Northeast 301 346 6,800 -1,560 Descending FlightAware ADS-B
12:49AM 39.5971 -75.2027 30° Northeast 301 346 6,400 -1,620 Descending FlightAware ADS-B
12:50AM 39.6161 -75.1885 30° Northeast 302 348 6,000 -1,620 Descending FlightAware ADS-B
12:50AM 39.6348 -75.1744 30° Northeast 302 348 5,600 -1,500 Descending FlightAware ADS-B
12:50AM 39.6552 -75.1591 30° Northeast 302 348 5,200 -1,320 Descending FlightAware ADS-B
12:50AM 39.6742 -75.1453 29° Northeast 302 348 4,900 -1,020 Descending FlightAware ADS-B
12:51AM 39.6933 -75.1317 29° Northeast 294 338 4,700 -660 Descending FlightAware ADS-B
12:51AM 39.7093 -75.1204 29° Northeast 286 329 4,600 -480 Descending FlightAware ADS-B
12:51AM 39.7227 -75.1109 29° Northeast 278 320 4,500 -660 Descending FlightAware ADS-B
12:51AM 39.7408 -75.0978 29° Northeast 269 310 4,300 -360 Descending FlightAware ADS-B
12:52AM 39.7601 -75.0836 29° Northeast 255 293 4,300  Level FlightAware ADS-B
12:52AM 39.7761 -75.0717 30° Northeast 249 287 4,300 -480 Level FlightAware ADS-B
12:53AM 39.8165 -75.0428 29° Northeast 244 281 3,900 -780 Descending FlightAware ADS-B
12:53AM 39.8564 -75.0517 350° North 213 245 3,300 -720 Descending FlightAware ADS-B
12:54AM 39.8697 -75.0576 341° North 194 223 3,300 -240 Level FlightAware ADS-B
12:54AM 39.8811 -75.0624 342° North 179 206 3,200 -300 Descending FlightAware ADS-B
12:54AM 39.8851 -75.0642 341° North 175 201 3,200 -600 Level FlightAware ADS-B
12:54AM 39.8884 -75.0663 334° Northwest 167 192 3,100 -780 Descending FlightAware ADS-B
12:54AM 39.8906 -75.0685 323° Northwest 159 183 3,100 -900 Level FlightAware ADS-B
12:54AM 39.8925 -75.0711 314° West 152 175 3,000 -1,740 Descending FlightAware ADS-B
12:54AM 39.8936 -75.0736 300° West 149 171 2,900 -900 Descending FlightAware ADS-B
12:54AM 39.8946 -75.0762 297° West 145 167 2,900 -780 Level FlightAware ADS-B
12:54AM 39.8953 -75.0802 283° West 140 161 2,800 -1,140 Descending FlightAware ADS-B
12:54AM 39.8957 -75.0855 276° West 135 155 2,700 -480 Descending FlightAware ADS-B
12:54AM 39.8958 -75.0903 272° West 133 153 2,700 -720 Level FlightAware ADS-B
12:55AM 39.8958 -75.0931 270° West 131 151 2,600 -900 Descending FlightAware ADS-B
12:55AM 39.8957 -75.0962 268° West 129 148 2,600 -900 Level FlightAware ADS-B
12:55AM 39.8953 -75.0989 259° West 128 147 2,500 -600 Descending FlightAware ADS-B
12:55AM 39.8944 -75.1046 258° West 124 143 2,500 -720 Level FlightAware ADS-B
12:55AM 39.8932 -75.1108 256° West 121 139 2,300 -780 Descending FlightAware ADS-B
12:55AM 39.8913 -75.1213 257° West 115 132 2,200 -600 Descending FlightAware ADS-B
12:55AM 39.8905 -75.1259 257° West 114 131 2,100 -600 Descending FlightAware ADS-B
12:56AM 39.8884 -75.1359 255° West 112 129 2,000 -600 Descending FlightAware ADS-B
12:56AM 39.8866 -75.1453 256° West 104 120 1,800 -600 Descending FlightAware ADS-B
12:56AM 39.8848 -75.1546 256° West 105 121 1,700 -480 Descending FlightAware ADS-B
12:56AM 39.8833 -75.1618 255° West 108 124 1,600 -600 Descending FlightAware ADS-B
12:56AM 39.8822 -75.1676 256° West 107 123 1,500 -600 Descending FlightAware ADS-B
12:57AM 39.8809 -75.1744 256° West 108 124 1,400 -540 Descending FlightAware ADS-B
12:57AM 39.8793 -75.1826 256° West 110 127 1,300 -720 Descending FlightAware ADS-B
12:57AM 39.8786 -75.1855 253° West 111 128 1,200 -600 Descending FlightAware ADS-B
12:57AM 39.8767 -75.1956 256° West 114 131 1,100 -720 Descending FlightAware ADS-B
12:57AM 39.8751 -75.2034 255° West 114 131 900 -720 Descending FlightAware ADS-B
12:57AM 39.8742 -75.2078 255° West 116 133 900 -540 Level FlightAware ADS-B
12:58AM 39.8720 -75.2190 256° West 117 135 700 -720 Descending FlightAware ADS-B